Time;durP1;ratioP1;P1;durP2;ratioP2;P2;SDS_P1;SDS_P2;PMS_P1;PMS_P2;Temp;Humidity;BMP_temperature;BMP_pressure;BME280_temperature;BME280_humidity;BME280_pressure;Samples;Min_cycle;Max_cycle;Signal;HPM_P1;HPM_P2
2022/06/29 00:01:46;;;;;;;74.18;70.50;;;;;;;;;;5056824;28;20032;-67
2022/06/29 00:04:11;;;;;;;69.10;65.70;;;;;;;;;;5057880;28;20446;-67
2022/06/29 00:06:37;;;;;;;64.22;61.03;;;;;;;;;;5057923;28;20040;-68
2022/06/29 00:09:02;;;;;;;63.33;60.15;;;;;;;;;;5058035;28;20021;-68
2022/06/29 00:11:28;;;;;;;70.15;66.68;;;;;;;;;;5055722;28;20469;-67
2022/06/29 00:13:53;;;;;;;62.90;59.65;;;;;;;;;;5054842;28;20028;-67
2022/06/29 00:16:18;;;;;;;58.38;55.42;;;;;;;;;;5054341;28;20414;-67
2022/06/29 00:18:44;;;;;;;52.13;49.45;;;;;;;;;;5062003;28;20628;-67
2022/06/29 00:21:09;;;;;;;45.78;43.45;;;;;;;;;;5057503;28;20071;-67
2022/06/29 00:23:34;;;;;;;42.35;40.22;;;;;;;;;;5053507;28;20024;-67
2022/06/29 00:26:00;;;;;;;46.45;44.10;;;;;;;;;;5057405;28;20030;-67
2022/06/29 00:28:25;;;;;;;40.45;38.35;;;;;;;;;;5056853;28;20052;-67
2022/06/29 00:30:51;;;;;;;47.20;44.78;;;;;;;;;;5055881;28;20025;-67
2022/06/29 00:33:16;;;;;;;35.97;34.10;;;;;;;;;;5056278;28;20079;-68
2022/06/29 00:35:41;;;;;;;29.38;27.75;;;;;;;;;;5054983;28;20049;-70
2022/06/29 00:38:06;;;;;;;36.70;34.80;;;;;;;;;;5054894;28;20530;-69
2022/06/29 00:40:32;;;;;;;19.42;18.33;;;;;;;;;;5056689;28;20524;-69
2022/06/29 00:42:57;;;;;;;17.80;16.83;;;;;;;;;;5056206;28;20122;-69
2022/06/29 00:45:23;;;;;;;17.27;16.27;;;;;;;;;;5056345;28;20036;-69
2022/06/29 00:47:48;;;;;;;17.30;16.00;;;;;;;;;;5055446;28;20044;-69
2022/06/29 00:50:13;;;;;;;17.98;16.95;;;;;;;;;;5053852;28;20063;-68
2022/06/29 00:52:42;;;;;;;15.18;14.32;;;;;;;;;;5052546;28;20086;-68
2022/06/29 00:55:11;;;;;;;14.27;13.48;;;;;;;;;;5056176;28;20021;-67
2022/06/29 00:57:45;;;;;;;14.40;13.57;;;;;;;;;;5055489;28;20094;-67
2022/06/29 01:00:11;;;;;;;13.50;12.73;;;;;;;;;;5054337;28;20024;-67
2022/06/29 01:02:37;;;;;;;14.05;13.25;;;;;;;;;;5055594;28;20120;-68
2022/06/29 01:05:04;;;;;;;14.43;13.63;;;;;;;;;;5056777;28;20772;-69
2022/06/29 01:07:32;;;;;;;12.23;11.52;;;;;;;;;;5056026;28;20033;-68
2022/06/29 01:09:58;;;;;;;14.57;13.70;;;;;;;;;;5056684;28;20035;-68
2022/06/29 01:12:24;;;;;;;15.50;14.60;;;;;;;;;;5055715;28;20045;-68
2022/06/29 01:14:50;;;;;;;16.63;15.73;;;;;;;;;;5057610;28;20032;-68
2022/06/29 01:17:16;;;;;;;21.23;20.00;;;;;;;;;;5054226;28;20086;-68
2022/06/29 01:19:43;;;;;;;14.60;13.73;;;;;;;;;;5053715;28;20036;-69
2022/06/29 01:22:13;;;;;;;14.00;13.18;;;;;;;;;;5054014;28;20059;-68
2022/06/29 01:24:39;;;;;;;;;;;;;;;;;;5053403;28;20418;-69
2022/06/29 01:27:05;;;;;;;13.38;12.57;;;;;;;;;;5057312;28;19958;-69
2022/06/29 01:29:31;;;;;;;17.40;16.45;;;;;;;;;;5054766;28;20047;-68
2022/06/29 01:31:57;;;;;;;31.70;30.05;;;;;;;;;;5055828;28;20016;-68
2022/06/29 01:34:24;;;;;;;28.20;26.70;;;;;;;;;;5055583;28;20083;-67
2022/06/29 01:36:50;;;;;;;19.83;18.75;;;;;;;;;;5053542;28;20029;-67
2022/06/29 01:39:15;;;;;;;34.67;32.90;;;;;;;;;;5053014;28;20041;-67
2022/06/29 01:41:41;;;;;;;35.22;33.42;;;;;;;;;;5056020;28;20032;-67
2022/06/29 01:44:06;;;;;;;30.02;28.48;;;;;;;;;;5055913;28;20020;-67
2022/06/29 01:46:31;;;;;;;36.30;34.42;;;;;;;;;;5057293;28;20032;-67
2022/06/29 01:48:57;;;;;;;27.30;25.85;;;;;;;;;;5053723;28;20033;-67
2022/06/29 01:51:22;;;;;;;40.97;38.90;;;;;;;;;;5055124;28;20032;-67
2022/06/29 01:53:48;;;;;;;28.85;27.27;;;;;;;;;;5056086;28;20025;-67
2022/06/29 01:56:13;;;;;;;23.98;22.70;;;;;;;;;;5056499;28;20141;-67
2022/06/29 01:58:38;;;;;;;41.38;39.25;;;;;;;;;;5052935;28;20025;-67
2022/06/29 02:01:04;;;;;;;42.72;40.53;;;;;;;;;;5056896;28;20689;-67
2022/06/29 02:03:29;;;;;;;33.92;32.17;;;;;;;;;;5053863;28;20036;-67
2022/06/29 02:05:54;;;;;;;43.25;41.08;;;;;;;;;;5057147;28;20035;-67
2022/06/29 02:08:20;;;;;;;44.97;42.67;;;;;;;;;;5056480;28;20032;-67
2022/06/29 02:10:45;;;;;;;41.60;39.50;;;;;;;;;;5055585;28;20040;-68
2022/06/29 02:13:10;;;;;;;33.90;32.13;;;;;;;;;;5055189;28;20044;-68
2022/06/29 02:15:36;;;;;;;44.13;41.85;;;;;;;;;;5057377;28;20478;-68
2022/06/29 02:18:02;;;;;;;38.20;36.25;;;;;;;;;;5055141;28;20060;-68
2022/06/29 02:20:28;;;;;;;38.53;36.58;;;;;;;;;;5055739;28;20043;-68
2022/06/29 02:22:54;;;;;;;36.88;34.97;;;;;;;;;;5054756;28;20029;-69
2022/06/29 02:25:20;;;;;;;35.75;33.90;;;;;;;;;;5055259;28;20021;-69
2022/06/29 02:27:45;;;;;;;39.33;37.33;;;;;;;;;;5052818;28;20598;-68
2022/06/29 02:30:13;;;;;;;39.13;37.13;;;;;;;;;;5058376;28;20047;-70
2022/06/29 02:35:22;;;;;;;36.40;34.55;;;;;;;;;;5059400;28;20029;-68
2022/06/29 02:37:48;;;;;;;37.28;35.28;;;;;;;;;;5058143;28;20029;-69
2022/06/29 02:40:13;;;;;;;37.67;35.70;;;;;;;;;;5057828;28;20024;-69
2022/06/29 02:42:39;;;;;;;36.95;35.05;;;;;;;;;;5061209;28;20044;-69
2022/06/29 02:45:04;;;;;;;33.10;31.38;;;;;;;;;;5056891;28;20066;-69
2022/06/29 02:47:30;;;;;;;35.75;33.92;;;;;;;;;;5058640;28;20020;-68
2022/06/29 02:49:56;;;;;;;36.75;34.85;;;;;;;;;;5055585;28;20082;-69
2022/06/29 02:52:21;;;;;;;38.92;36.92;;;;;;;;;;5058726;28;20107;-69
2022/06/29 02:54:47;;;;;;;37.63;35.63;;;;;;;;;;5058543;28;20066;-69
2022/06/29 02:57:12;;;;;;;36.65;34.75;;;;;;;;;;5039488;28;20110;-69
2022/06/29 02:59:38;;;;;;;35.92;34.03;;;;;;;;;;5053564;28;20558;-68
2022/06/29 03:02:03;;;;;;;37.58;35.65;;;;;;;;;;5056236;28;20465;-68
2022/06/29 03:04:29;;;;;;;38.13;36.13;;;;;;;;;;5055145;28;20028;-69
2022/06/29 03:06:54;;;;;;;36.47;34.60;;;;;;;;;;5056529;28;20040;-69
2022/06/29 03:09:20;;;;;;;38.50;36.50;;;;;;;;;;5055851;28;20021;-69
2022/06/29 03:11:45;;;;;;;36.35;34.47;;;;;;;;;;5056506;28;20028;-69
2022/06/29 03:14:10;;;;;;;32.97;31.27;;;;;;;;;;5057549;28;20029;-69
2022/06/29 03:16:37;;;;;;;33.88;32.15;;;;;;;;;;5052846;28;20533;-69
2022/06/29 03:19:02;;;;;;;34.58;32.78;;;;;;;;;;5051426;28;20036;-68
2022/06/29 03:21:28;;;;;;;34.65;32.85;;;;;;;;;;5055017;28;20039;-68
2022/06/29 03:23:53;;;;;;;34.88;33.08;;;;;;;;;;5056899;28;20017;-69
2022/06/29 03:26:18;;;;;;;35.00;33.17;;;;;;;;;;5059222;28;20082;-69
2022/06/29 03:28:44;;;;;;;30.27;28.67;;;;;;;;;;5053930;28;20072;-68
2022/06/29 03:31:09;;;;;;;28.83;27.17;;;;;;;;;;5055248;28;20044;-68
2022/06/29 03:33:34;;;;;;;22.88;21.67;;;;;;;;;;5051950;28;20366;-68
2022/06/29 03:36:00;;;;;;;24.67;23.38;;;;;;;;;;5052928;28;20520;-68
2022/06/29 03:38:25;;;;;;;26.73;25.27;;;;;;;;;;5052235;28;20119;-68
2022/06/29 03:40:51;;;;;;;27.25;25.77;;;;;;;;;;5053197;28;20025;-68
2022/06/29 03:43:17;;;;;;;26.75;25.35;;;;;;;;;;5054470;28;20430;-68
2022/06/29 03:45:42;;;;;;;21.88;20.70;;;;;;;;;;5054467;28;20043;-69
2022/06/29 03:48:08;;;;;;;23.23;21.98;;;;;;;;;;5056399;28;20095;-70
2022/06/29 03:50:33;;;;;;;25.13;23.63;;;;;;;;;;5056960;28;20040;-69
2022/06/29 03:52:59;;;;;;;28.95;27.40;;;;;;;;;;5051260;28;20820;-69
2022/06/29 03:55:24;;;;;;;22.98;21.70;;;;;;;;;;5057184;28;20036;-69
2022/06/29 03:57:50;;;;;;;29.80;28.27;;;;;;;;;;5052801;28;20174;-69
2022/06/29 04:00:15;;;;;;;17.65;16.65;;;;;;;;;;5053102;28;20111;-69
2022/06/29 04:02:41;;;;;;;17.48;16.50;;;;;;;;;;5052924;28;20029;-70
2022/06/29 04:05:07;;;;;;;18.80;17.77;;;;;;;;;;5054014;28;20362;-70
2022/06/29 04:07:33;;;;;;;24.90;23.55;;;;;;;;;;5051530;28;20041;-70
2022/06/29 04:10:01;;;;;;;17.38;16.38;;;;;;;;;;5054183;28;20540;-69
2022/06/29 04:12:32;;;;;;;36.08;34.22;;;;;;;;;;5051876;28;20115;-68
2022/06/29 04:14:58;;;;;;;17.88;16.88;;;;;;;;;;5051855;28;20450;-68
2022/06/29 04:17:23;;;;;;;33.15;31.42;;;;;;;;;;5051278;28;20110;-69
2022/06/29 04:19:51;;;;;;;34.63;32.85;;;;;;;;;;5052511;28;20033;-68
2022/06/29 04:22:16;;;;;;;18.42;17.23;;;;;;;;;;5052487;28;20040;-68
2022/06/29 04:24:42;;;;;;;17.15;16.20;;;;;;;;;;5041751;28;20036;-68
2022/06/29 04:27:07;;;;;;;39.55;37.55;;;;;;;;;;5054617;28;20257;-68
2022/06/29 04:29:32;;;;;;;18.15;17.15;;;;;;;;;;5056336;28;20082;-68
2022/06/29 04:31:58;;;;;;;16.50;15.60;;;;;;;;;;5053952;28;20052;-68
2022/06/29 04:34:23;;;;;;;18.90;17.90;;;;;;;;;;5053758;28;20028;-68
2022/06/29 04:36:48;;;;;;;23.42;22.20;;;;;;;;;;5052790;28;20025;-68
2022/06/29 04:39:14;;;;;;;28.25;26.73;;;;;;;;;;5052857;28;20033;-68
2022/06/29 04:41:39;;;;;;;17.05;16.05;;;;;;;;;;5055955;28;20401;-68
2022/06/29 04:44:04;;;;;;;20.90;19.77;;;;;;;;;;5051689;28;20028;-69
2022/06/29 04:46:30;;;;;;;23.00;21.80;;;;;;;;;;5051404;28;20442;-68
2022/06/29 04:48:58;;;;;;;18.88;17.77;;;;;;;;;;5056931;28;20029;-69
2022/06/29 04:51:26;;;;;;;34.88;33.08;;;;;;;;;;5055058;28;20032;-68
2022/06/29 04:53:54;;;;;;;28.45;26.95;;;;;;;;;;5057393;28;20036;-69
2022/06/29 04:56:21;;;;;;;19.45;18.38;;;;;;;;;;5059880;28;20040;-69
2022/06/29 04:58:46;;;;;;;34.35;32.55;;;;;;;;;;5057072;28;20029;-69
2022/06/29 05:01:12;;;;;;;27.45;26.00;;;;;;;;;;5057420;28;20051;-69
2022/06/29 05:03:37;;;;;;;38.75;36.72;;;;;;;;;;5054156;28;20353;-70
2022/06/29 05:06:03;;;;;;;23.77;22.48;;;;;;;;;;5056963;28;20035;-68
2022/06/29 05:08:28;;;;;;;18.23;17.23;;;;;;;;;;5050427;28;20033;-69
2022/06/29 05:10:53;;;;;;;39.15;37.13;;;;;;;;;;5056678;28;20461;-68
2022/06/29 05:13:19;;;;;;;18.40;17.40;;;;;;;;;;5056974;28;20115;-69
2022/06/29 05:15:44;;;;;;;17.55;16.58;;;;;;;;;;5054022;28;20108;-69
2022/06/29 05:18:10;;;;;;;17.65;16.67;;;;;;;;;;5055816;28;20124;-70
2022/06/29 05:20:35;;;;;;;48.72;46.28;;;;;;;;;;5058371;28;20108;-68
2022/06/29 05:23:00;;;;;;;39.33;37.33;;;;;;;;;;5053996;28;20455;-70
2022/06/29 05:25:26;;;;;;;19.17;18.15;;;;;;;;;;5056155;28;20504;-70
2022/06/29 05:27:51;;;;;;;21.27;20.08;;;;;;;;;;5055042;28;20036;-69
2022/06/29 05:30:17;;;;;;;22.70;21.48;;;;;;;;;;5056333;28;20378;-69
2022/06/29 05:32:43;;;;;;;22.80;21.58;;;;;;;;;;5055834;28;20040;-69
2022/06/29 05:35:09;;;;;;;38.88;36.83;;;;;;;;;;5052537;28;20035;-70
2022/06/29 05:37:36;;;;;;;21.42;20.20;;;;;;;;;;5052977;28;20032;-69
2022/06/29 05:40:02;;;;;;;24.92;23.63;;;;;;;;;;5055681;28;20033;-68
2022/06/29 05:42:27;;;;;;;32.15;30.45;;;;;;;;;;5053442;28;20183;-68
2022/06/29 05:44:53;;;;;;;39.15;37.15;;;;;;;;;;5055072;28;20028;-68
2022/06/29 05:47:19;;;;;;;37.25;35.35;;;;;;;;;;5055258;28;20024;-69
2022/06/29 05:49:44;;;;;;;30.77;29.17;;;;;;;;;;5055949;28;20028;-68
2022/06/29 05:52:09;;;;;;;27.30;25.88;;;;;;;;;;5057993;28;20020;-68
2022/06/29 05:54:35;;;;;;;49.63;47.03;;;;;;;;;;5054281;28;20025;-68
2022/06/29 05:57:01;;;;;;;36.33;34.42;;;;;;;;;;5052562;28;20033;-68
2022/06/29 05:59:26;;;;;;;44.78;42.47;;;;;;;;;;5055906;28;20094;-69
2022/06/29 06:01:51;;;;;;;48.75;46.25;;;;;;;;;;5052646;28;20486;-68
2022/06/29 06:04:17;;;;;;;46.65;44.30;;;;;;;;;;5058106;28;20083;-69
2022/06/29 06:06:42;;;;;;;32.78;30.75;;;;;;;;;;5059941;28;20032;-70
2022/06/29 06:09:08;;;;;;;43.03;40.80;;;;;;;;;;5054756;28;20064;-70
2022/06/29 06:11:34;;;;;;;33.80;32.03;;;;;;;;;;5059574;28;20627;-73
2022/06/29 06:14:00;;;;;;;28.08;26.58;;;;;;;;;;5060582;28;20326;-68
2022/06/29 06:16:25;;;;;;;32.92;31.23;;;;;;;;;;5061063;28;20111;-68
2022/06/29 06:18:50;;;;;;;29.10;27.55;;;;;;;;;;5059966;28;20028;-69
2022/06/29 06:21:16;;;;;;;33.45;31.73;;;;;;;;;;5060012;28;20104;-69
2022/06/29 06:23:41;;;;;;;31.92;30.23;;;;;;;;;;5058643;28;20131;-69
2022/06/29 06:26:07;;;;;;;33.45;31.70;;;;;;;;;;5058702;28;20032;-69
2022/06/29 06:28:32;;;;;;;28.63;27.13;;;;;;;;;;5059612;28;20128;-69
2022/06/29 06:30:57;;;;;;;28.55;26.95;;;;;;;;;;5057173;28;20031;-69
2022/06/29 06:33:23;;;;;;;47.35;44.92;;;;;;;;;;5058310;28;20056;-68
2022/06/29 06:35:49;;;;;;;29.40;27.83;;;;;;;;;;5059176;28;20593;-69
2022/06/29 06:38:15;;;;;;;44.63;42.38;;;;;;;;;;5059521;28;20044;-69
2022/06/29 06:43:24;;;;;;;36.22;34.35;;;;;;;;;;5058876;28;20573;-69
2022/06/29 06:45:50;;;;;;;72.85;69.28;;;;;;;;;;5059501;28;20051;-69
2022/06/29 06:48:15;;;;;;;53.78;51.05;;;;;;;;;;5058503;28;20016;-69
2022/06/29 06:50:40;;;;;;;30.98;29.35;;;;;;;;;;5058972;28;20032;-69
2022/06/29 06:53:06;;;;;;;39.58;37.53;;;;;;;;;;5055152;28;20039;-68
2022/06/29 06:55:31;;;;;;;96.97;92.18;;;;;;;;;;5055368;28;20451;-69
2022/06/29 06:57:56;;;;;;;53.10;50.40;;;;;;;;;;5059944;28;20040;-69
2022/06/29 07:00:22;;;;;;;48.78;46.25;;;;;;;;;;5056170;28;20031;-68
2022/06/29 07:02:47;;;;;;;49.92;47.40;;;;;;;;;;5057035;28;20398;-69
2022/06/29 07:05:13;;;;;;;54.20;51.47;;;;;;;;;;5060944;28;20425;-68
2022/06/29 07:07:39;;;;;;;111.47;106.03;;;;;;;;;;5059164;28;20045;-69
2022/06/29 07:10:05;;;;;;;61.65;58.55;;;;;;;;;;5060287;28;20060;-67
2022/06/29 07:12:31;;;;;;;53.45;50.72;;;;;;;;;;5059700;28;20784;-68
2022/06/29 07:14:56;;;;;;;72.95;69.35;;;;;;;;;;5058914;28;20082;-68
2022/06/29 07:17:21;;;;;;;68.95;65.50;;;;;;;;;;5056733;28;20065;-68
2022/06/29 07:19:47;;;;;;;56.83;53.90;;;;;;;;;;5059295;28;20040;-68
2022/06/29 07:22:12;;;;;;;54.63;51.85;;;;;;;;;;5059573;28;20043;-69
2022/06/29 07:24:37;;;;;;;58.92;55.97;;;;;;;;;;5056129;28;20068;-68
2022/06/29 07:27:03;;;;;;;54.08;51.35;;;;;;;;;;5058178;28;20057;-68
2022/06/29 07:29:28;;;;;;;59.05;56.08;;;;;;;;;;5056088;28;20492;-70
2022/06/29 07:31:54;;;;;;;74.53;70.75;;;;;;;;;;5052586;28;20028;-70
2022/06/29 07:34:19;;;;;;;56.15;53.33;;;;;;;;;;5052920;28;20035;-70
2022/06/29 07:36:44;;;;;;;71.93;68.35;;;;;;;;;;5055857;28;20123;-71
2022/06/29 07:39:10;;;;;;;64.22;61.03;;;;;;;;;;5057968;28;20032;-72
2022/06/29 07:41:36;;;;;;;76.22;72.43;;;;;;;;;;5057762;28;20040;-71
2022/06/29 07:44:05;;;;;;;75.15;71.40;;;;;;;;;;5054515;28;20044;-71
2022/06/29 07:46:30;;;;;;;77.28;73.45;;;;;;;;;;5055691;28;20067;-71
2022/06/29 07:48:56;;;;;;;70.15;66.65;;;;;;;;;;5058439;28;20060;-69
2022/06/29 07:51:21;;;;;;;63.55;60.35;;;;;;;;;;5057235;28;20049;-70
2022/06/29 07:53:46;;;;;;;69.47;66.03;;;;;;;;;;5057726;28;20029;-69
2022/06/29 07:56:12;;;;;;;86.70;82.40;;;;;;;;;;5054989;28;20344;-70
2022/06/29 07:58:37;;;;;;;74.85;71.13;;;;;;;;;;5055693;28;20223;-69
2022/06/29 08:01:03;;;;;;;74.32;70.63;;;;;;;;;;5058549;28;20048;-69
2022/06/29 08:03:31;;;;;;;85.47;81.25;;;;;;;;;;5057244;28;20774;-69
2022/06/29 08:05:57;;;;;;;124.53;118.43;;;;;;;;;;5053175;28;20025;-70
2022/06/29 08:08:22;;;;;;;140.25;133.38;;;;;;;;;;5057196;28;20039;-71
2022/06/29 08:10:48;;;;;;;133.02;126.50;;;;;;;;;;5058460;28;20021;-70
2022/06/29 08:13:13;;;;;;;78.43;74.53;;;;;;;;;;5057101;28;20809;-70
2022/06/29 08:15:39;;;;;;;93.38;88.78;;;;;;;;;;5050793;28;20044;-70
2022/06/29 08:18:04;;;;;;;82.40;78.32;;;;;;;;;;5054024;28;20039;-71
2022/06/29 08:20:30;;;;;;;101.50;96.45;;;;;;;;;;5057554;28;20560;-69
2022/06/29 08:22:56;;;;;;;76.15;72.38;;;;;;;;;;5053492;28;20035;-70
2022/06/29 08:25:21;;;;;;;97.53;92.63;;;;;;;;;;5056772;28;20028;-70
2022/06/29 08:27:52;;;;;;;121.57;115.63;;;;;;;;;;5057111;28;20028;-69
2022/06/29 08:30:18;;;;;;;86.45;81.78;;;;;;;;;;5054803;28;20039;-70
2022/06/29 08:32:44;;;;;;;88.80;84.45;;;;;;;;;;5051146;28;20040;-69
2022/06/29 08:35:14;;;;;;;88.00;83.68;;;;;;;;;;5053300;28;20043;-70
2022/06/29 08:37:40;;;;;;;92.18;87.60;;;;;;;;;;5056357;28;20039;-70
2022/06/29 08:40:07;;;;;;;97.25;92.40;;;;;;;;;;5053455;28;20032;-68
2022/06/29 08:42:35;;;;;;;92.47;87.90;;;;;;;;;;5053491;28;20037;-68
2022/06/29 08:45:01;;;;;;;119.57;113.68;;;;;;;;;;5051030;28;20040;-69
2022/06/29 08:47:26;;;;;;;103.38;98.22;;;;;;;;;;5053186;28;20044;-69
2022/06/29 08:49:52;;;;;;;93.45;88.78;;;;;;;;;;5055588;28;20028;-69
2022/06/29 08:52:18;;;;;;;99.38;94.47;;;;;;;;;;5055971;28;20051;-69
2022/06/29 08:54:46;;;;;;;131.43;124.93;;;;;;;;;;5054739;28;20130;-69
2022/06/29 08:57:12;;;;;;;109.13;103.72;;;;;;;;;;5052140;28;20047;-69
2022/06/29 08:59:37;;;;;;;95.78;91.10;;;;;;;;;;5051055;28;20045;-70
2022/06/29 09:02:03;;;;;;;152.45;144.93;;;;;;;;;;5056616;28;20485;-69
2022/06/29 09:04:29;;;;;;;132.85;126.32;;;;;;;;;;5052147;28;20074;-71
2022/06/29 09:06:56;;;;;;;117.53;111.72;;;;;;;;;;5056378;28;20037;-68
2022/06/29 09:09:22;;;;;;;111.25;105.75;;;;;;;;;;5050627;28;20539;-68
2022/06/29 09:11:50;;;;;;;151.68;144.15;;;;;;;;;;5054971;28;20101;-69
2022/06/29 09:14:17;;;;;;;176.63;168.05;;;;;;;;;;5055880;28;20032;-69
2022/06/29 09:16:49;;;;;;;141.80;134.80;;;;;;;;;;5052359;28;20033;-68
2022/06/29 09:19:18;;;;;;;105.75;100.55;;;;;;;;;;5052028;28;20449;-70
2022/06/29 09:21:47;;;;;;;151.98;144.10;;;;;;;;;;5052044;28;20175;-68
2022/06/29 09:24:39;;;;;;;150.02;142.55;;;;;;;;;;5054286;28;20051;-69
2022/06/29 09:27:11;;;;;;;140.70;133.80;;;;;;;;;;5049902;28;20101;-68
2022/06/29 09:29:39;;;;;;;128.65;122.25;;;;;;;;;;5053261;28;20028;-68
2022/06/29 09:32:05;;;;;;;243.32;231.43;;;;;;;;;;5051809;28;20095;-68
2022/06/29 09:34:31;;;;;;;125.97;119.68;;;;;;;;;;5050947;28;20037;-69
2022/06/29 09:36:58;;;;;;;123.15;117.13;;;;;;;;;;5052101;28;20032;-68
2022/06/29 09:39:37;;;;;;;95.88;91.10;;;;;;;;;;5054481;28;20041;-68
2022/06/29 09:42:08;;;;;;;164.77;156.57;;;;;;;;;;5058774;28;20038;-67
2022/06/29 09:44:34;;;;;;;124.22;118.10;;;;;;;;;;5060003;28;20473;-67
2022/06/29 09:47:03;;;;;;;167.55;159.30;;;;;;;;;;5060690;28;20036;-69
2022/06/29 09:49:29;;;;;;;105.28;100.13;;;;;;;;;;5056062;28;20064;-68
2022/06/29 09:51:57;;;;;;;235.98;224.43;;;;;;;;;;5061834;28;20029;-68
2022/06/29 09:54:40;;;;;;;198.95;189.15;;;;;;;;;;5056707;28;20556;-68
2022/06/29 09:57:07;;;;;;;225.23;213.95;;;;;;;;;;5059725;28;20037;-68
2022/06/29 10:02:34;;;;;;;131.15;124.65;;;;;;;;;;5057843;28;20071;-69
2022/06/29 10:05:03;;;;;;;195.25;185.40;;;;;;;;;;5057023;28;20025;-68
2022/06/29 10:07:30;;;;;;;267.63;254.40;;;;;;;;;;5057716;28;20025;-65
2022/06/29 10:09:57;;;;;;;280.88;266.95;;;;;;;;;;5056872;28;20036;-67
2022/06/29 10:15:51;;;;;;;214.57;204.00;;;;;;;;;;5056377;28;20137;-66
2022/06/29 10:18:49;;;;;;;265.73;252.57;;;;;;;;;;5054246;28;20029;-66
2022/06/29 10:21:18;;;;;;;187.25;177.90;;;;;;;;;;5060330;28;20462;-66
2022/06/29 10:23:52;;;;;;;245.97;233.73;;;;;;;;;;5057013;28;20354;-66
2022/06/29 10:26:34;;;;;;;242.18;230.25;;;;;;;;;;5056924;28;20122;-66
2022/06/29 10:29:06;;;;;;;309.50;294.23;;;;;;;;;;5058675;28;20360;-67
2022/06/29 10:31:49;;;;;;;297.20;282.50;;;;;;;;;;5054933;28;20093;-67
2022/06/29 10:34:30;;;;;;;316.27;300.58;;;;;;;;;;5060367;28;20514;-67
2022/06/29 10:37:11;;;;;;;262.00;248.85;;;;;;;;;;5058862;28;20055;-67
2022/06/29 10:39:48;;;;;;;80.05;75.95;;;;;;;;;;5057632;28;20445;-67
2022/06/29 10:45:11;;;;;;;248.23;235.93;;;;;;;;;;5056397;28;20097;-68
2022/06/29 10:47:36;;;;;;;171.70;163.10;;;;;;;;;;5058695;28;20462;-67
2022/06/29 10:50:25;;;;;;;85.22;80.93;;;;;;;;;;5058130;28;20036;-67
2022/06/29 10:52:53;;;;;;;218.45;207.55;;;;;;;;;;5055253;28;20060;-67
2022/06/29 10:55:20;;;;;;;285.38;271.15;;;;;;;;;;5052379;28;20032;-68
2022/06/29 10:57:46;;;;;;;184.85;175.65;;;;;;;;;;5057602;28;20087;-68
2022/06/29 11:00:21;;;;;;;305.45;290.30;;;;;;;;;;5055417;28;20068;-68
2022/06/29 11:02:47;;;;;;;316.08;300.38;;;;;;;;;;5055780;28;20477;-68
2022/06/29 11:05:13;;;;;;;170.27;161.68;;;;;;;;;;5064012;28;20028;-69
2022/06/29 11:13:20;;;;;;;288.98;274.60;;;;;;;;;;5060370;28;20069;-67
2022/06/29 11:15:49;;;;;;;288.52;274.25;;;;;;;;;;5055442;28;20478;-68
2022/06/29 11:18:20;;;;;;;278.38;264.52;;;;;;;;;;5058395;28;20088;-67
2022/06/29 11:20:51;;;;;;;239.43;227.60;;;;;;;;;;5056613;28;20052;-67
2022/06/29 11:23:18;;;;;;;115.60;109.85;;;;;;;;;;5054412;28;20342;-68
2022/06/29 11:25:47;;;;;;;104.63;99.38;;;;;;;;;;5056248;28;20028;-68
2022/06/29 11:28:19;;;;;;;173.27;164.57;;;;;;;;;;5059021;28;20630;-68
2022/06/29 11:31:01;;;;;;;290.63;276.23;;;;;;;;;;5056815;28;20405;-67
2022/06/29 11:33:28;;;;;;;119.05;113.15;;;;;;;;;;5055635;28;20194;-68
2022/06/29 11:35:55;;;;;;;107.03;101.75;;;;;;;;;;5056970;28;20048;-68
2022/06/29 11:38:25;;;;;;;136.23;129.38;;;;;;;;;;5055103;28;20056;-68
2022/06/29 11:40:54;;;;;;;;;;;;;;;;;;5056236;28;20033;-68
2022/06/29 11:43:20;;;;;;;155.75;148.02;;;;;;;;;;5057643;28;19919;-68
2022/06/29 11:45:53;;;;;;;117.40;111.45;;;;;;;;;;5055436;28;20638;-68
2022/06/29 11:48:24;;;;;;;137.93;131.07;;;;;;;;;;5053555;28;20068;-68
2022/06/29 11:51:00;;;;;;;118.00;112.05;;;;;;;;;;5057354;28;20033;-68
2022/06/29 11:53:56;;;;;;;77.13;73.25;;;;;;;;;;5058493;28;20035;-68
2022/06/29 11:56:23;;;;;;;75.80;71.80;;;;;;;;;;5050098;28;20110;-68
2022/06/29 11:58:55;;;;;;;94.72;90.03;;;;;;;;;;5055246;28;20024;-68
2022/06/29 12:01:26;;;;;;;142.23;135.13;;;;;;;;;;5054810;28;20116;-68
2022/06/29 12:04:00;;;;;;;86.55;82.22;;;;;;;;;;5053553;28;20087;-68
2022/06/29 12:06:35;;;;;;;236.98;225.23;;;;;;;;;;5054398;28;20025;-68
2022/06/29 12:09:01;;;;;;;286.25;272.02;;;;;;;;;;5055927;28;20174;-68
2022/06/29 12:11:26;;;;;;;128.05;121.60;;;;;;;;;;5056650;28;20107;-68
2022/06/29 12:13:51;;;;;;;100.78;95.72;;;;;;;;;;5057217;28;20044;-68
2022/06/29 12:16:17;;;;;;;285.75;271.55;;;;;;;;;;5054903;28;20048;-69
2022/06/29 12:18:43;;;;;;;243.43;231.23;;;;;;;;;;5053207;28;20109;-68
2022/06/29 12:21:09;;;;;;;233.23;221.65;;;;;;;;;;5056472;28;20083;-67
2022/06/29 12:23:36;;;;;;;203.20;193.10;;;;;;;;;;5056807;28;20020;-68
2022/06/29 12:26:01;;;;;;;99.50;94.53;;;;;;;;;;5055927;28;20044;-68
2022/06/29 12:28:27;;;;;;;106.03;100.63;;;;;;;;;;5054949;28;20082;-68
2022/06/29 12:30:52;;;;;;;191.00;181.52;;;;;;;;;;5051615;28;20605;-68
2022/06/29 12:33:19;;;;;;;73.95;70.25;;;;;;;;;;5070113;28;20032;-69
2022/06/29 12:35:44;;;;;;;247.60;235.20;;;;;;;;;;5059596;28;20105;-68
2022/06/29 12:38:09;;;;;;;252.55;239.98;;;;;;;;;;5052780;28;20032;-68
2022/06/29 12:40:35;;;;;;;138.30;131.20;;;;;;;;;;5054801;28;20060;-68
2022/06/29 12:43:01;;;;;;;265.27;252.07;;;;;;;;;;5054094;28;20039;-68
2022/06/29 12:45:26;;;;;;;159.63;151.65;;;;;;;;;;5049812;28;20040;-67
2022/06/29 12:47:52;;;;;;;74.38;70.68;;;;;;;;;;5052682;28;20036;-68
2022/06/29 12:50:18;;;;;;;236.35;224.55;;;;;;;;;;5053721;28;20043;-67
2022/06/29 12:52:46;;;;;;;312.58;296.98;;;;;;;;;;5057318;28;20035;-68
2022/06/29 12:55:16;;;;;;;308.80;293.40;;;;;;;;;;5053038;28;20097;-68
2022/06/29 12:57:42;;;;;;;289.85;275.42;;;;;;;;;;5054645;28;20035;-67
2022/06/29 13:00:09;;;;;;;292.08;277.52;;;;;;;;;;5056683;28;20516;-67
2022/06/29 13:02:34;;;;;;;309.88;294.42;;;;;;;;;;5055506;28;20063;-68
2022/06/29 13:05:00;;;;;;;104.97;99.72;;;;;;;;;;5052652;28;20120;-68
2022/06/29 13:07:26;;;;;;;94.97;90.25;;;;;;;;;;5063275;28;20164;-67
2022/06/29 13:09:54;;;;;;;228.85;217.65;;;;;;;;;;5057689;28;20490;-68
2022/06/29 13:12:20;;;;;;;238.18;226.50;;;;;;;;;;5050371;28;20029;-69
2022/06/29 13:14:45;;;;;;;205.25;195.20;;;;;;;;;;5054221;28;20465;-68
2022/06/29 13:17:11;;;;;;;222.68;211.70;;;;;;;;;;5057537;28;20032;-68
2022/06/29 13:19:37;;;;;;;270.23;256.98;;;;;;;;;;5052094;28;20782;-67
2022/06/29 13:22:02;;;;;;;245.25;233.20;;;;;;;;;;5056574;28;20036;-68
2022/06/29 13:24:28;;;;;;;157.30;149.40;;;;;;;;;;5057221;28;20536;-68
2022/06/29 13:26:54;;;;;;;84.95;80.65;;;;;;;;;;5053786;28;20036;-67
2022/06/29 13:29:20;;;;;;;108.30;102.45;;;;;;;;;;5056105;28;20029;-67
2022/06/29 13:31:46;;;;;;;224.35;213.32;;;;;;;;;;5055773;28;20039;-67
2022/06/29 13:34:12;;;;;;;135.82;129.07;;;;;;;;;;5053201;28;20024;-68
2022/06/29 13:36:37;;;;;;;265.40;252.38;;;;;;;;;;5053386;28;20277;-67
2022/06/29 13:39:03;;;;;;;174.60;165.80;;;;;;;;;;5051097;28;20151;-68
2022/06/29 13:41:28;;;;;;;214.13;203.68;;;;;;;;;;5050420;28;20766;-67
2022/06/29 13:43:54;;;;;;;198.50;188.75;;;;;;;;;;5050478;28;20033;-67
2022/06/29 13:46:19;;;;;;;188.40;179.07;;;;;;;;;;5048481;28;20612;-67
2022/06/29 13:48:45;;;;;;;262.35;249.50;;;;;;;;;;5050971;28;20140;-61
2022/06/29 13:51:10;;;;;;;156.73;148.98;;;;;;;;;;5051728;28;20032;-61
2022/06/29 13:53:36;;;;;;;123.10;117.00;;;;;;;;;;5049478;28;20043;-61
2022/06/29 13:56:02;;;;;;;92.28;87.07;;;;;;;;;;5069515;28;20033;-60
2022/06/29 13:58:27;;;;;;;130.02;123.57;;;;;;;;;;5052490;28;20036;-60
2022/06/29 14:00:53;;;;;;;126.68;120.43;;;;;;;;;;5053087;28;20110;-60
2022/06/29 14:03:19;;;;;;;113.38;107.78;;;;;;;;;;5052711;28;20065;-60
2022/06/29 14:05:45;;;;;;;146.02;138.73;;;;;;;;;;5050398;28;20025;-60
2022/06/29 14:08:10;;;;;;;121.13;114.40;;;;;;;;;;5049417;28;20765;-60
2022/06/29 14:10:36;;;;;;;144.32;137.18;;;;;;;;;;5051543;28;20116;-60
2022/06/29 14:13:01;;;;;;;144.88;137.48;;;;;;;;;;5051695;28;20154;-60
2022/06/29 14:15:27;;;;;;;147.45;140.20;;;;;;;;;;5051067;28;20580;-61
2022/06/29 14:17:53;;;;;;;153.30;145.73;;;;;;;;;;5054421;28;20064;-61
2022/06/29 14:20:18;;;;;;;147.43;140.07;;;;;;;;;;5051415;28;20119;-61
2022/06/29 14:22:44;;;;;;;137.35;130.50;;;;;;;;;;5053567;28;20032;-61
2022/06/29 14:25:09;;;;;;;151.45;143.88;;;;;;;;;;5058592;28;20099;-61
2022/06/29 14:27:35;;;;;;;147.75;140.45;;;;;;;;;;5056881;28;20039;-61